Time;durP1;ratioP1;P1;durP2;ratioP2;P2;SDS_P1;SDS_P2;PMS_P1;PMS_P2;Temp;Humidity;BMP_temperature;BMP_pressure;BME280_temperature;BME280_humidity;BME280_pressure;Samples;Min_cycle;Max_cycle;Signal;HPM_P1;HPM_P2
2023/08/14 00:01:54;;;;;;;4.83;1.70;;;20.60;99.90;;;;;;4947276;28;20223;-76
2023/08/14 00:04:20;;;;;;;5.30;1.43;;;20.60;99.90;;;;;;4932466;29;20961;-77
2023/08/14 00:06:45;;;;;;;2.10;1.03;;;20.60;99.90;;;;;;4933727;29;20173;-76
2023/08/14 00:09:11;;;;;;;4.90;1.10;;;20.50;99.90;;;;;;4933556;29;20263;-76
2023/08/14 00:11:37;;;;;;;2.80;1.17;;;20.50;99.90;;;;;;4932058;29;20773;-75
2023/08/14 00:14:03;;;;;;;3.53;2.40;;;20.50;99.90;;;;;;4934125;29;20199;-76
2023/08/14 00:16:29;;;;;;;5.20;1.10;;;20.50;99.90;;;;;;4933848;29;20611;-76
2023/08/14 00:18:55;;;;;;;3.77;1.30;;;20.50;99.90;;;;;;4932348;29;20735;-76
2023/08/14 00:21:21;;;;;;;5.10;1.57;;;20.60;99.90;;;;;;4948159;28;20201;-76
2023/08/14 00:23:47;;;;;;;4.03;1.43;;;20.50;99.90;;;;;;4932461;29;20176;-76
2023/08/14 00:26:13;;;;;;;3.03;1.03;;;20.50;99.90;;;;;;4948146;28;20688;-76
2023/08/14 00:28:39;;;;;;;2.80;1.00;;;20.50;99.90;;;;;;4937556;29;20687;-76
2023/08/14 00:31:06;;;;;;;3.50;1.10;;;20.50;99.90;;;;;;4933590;29;20621;-76
2023/08/14 00:33:32;;;;;;;3.10;1.00;;;20.50;99.90;;;;;;4933327;29;20985;-76
2023/08/14 00:35:58;;;;;;;3.60;1.20;;;20.50;99.90;;;;;;4932291;29;20598;-76
2023/08/14 00:38:24;;;;;;;4.40;1.40;;;20.50;99.90;;;;;;4932189;29;20228;-76
2023/08/14 00:40:52;;;;;;;4.13;1.17;;;20.50;99.90;;;;;;4931898;29;21006;-76
2023/08/14 00:43:20;;;;;;;6.20;1.20;;;20.40;99.90;;;;;;4932121;29;20247;-75
2023/08/14 00:45:46;;;;;;;3.20;1.10;;;20.40;99.90;;;;;;4933439;29;20947;-76
2023/08/14 00:48:13;;;;;;;3.53;1.10;;;20.40;99.90;;;;;;4932260;29;20586;-76
2023/08/14 00:50:39;;;;;;;2.83;1.27;;;20.40;99.90;;;;;;4934449;29;20576;-76
2023/08/14 00:53:05;;;;;;;3.03;1.30;;;20.40;99.90;;;;;;4933855;29;21157;-76
2023/08/14 00:55:31;;;;;;;3.87;1.10;;;20.40;99.90;;;;;;4937031;29;20628;-76
2023/08/14 00:57:57;;;;;;;3.07;1.17;;;20.40;99.90;;;;;;4940183;29;20189;-76
2023/08/14 01:00:24;;;;;;;2.77;1.57;;;20.40;99.90;;;;;;4950419;29;20581;-76
2023/08/14 01:02:50;;;;;;;3.27;1.30;;;20.40;99.90;;;;;;4958482;29;20601;-77
2023/08/14 01:05:16;;;;;;;4.67;1.40;;;20.40;99.90;;;;;;4933007;29;20703;-77
2023/08/14 01:07:42;;;;;;;4.10;1.30;;;20.40;99.90;;;;;;4935405;29;20675;-76
2023/08/14 01:10:11;;;;;;;5.07;1.60;;;20.40;99.90;;;;;;4948918;28;20940;-76
2023/08/14 01:13:20;;;;;;;3.93;1.60;;;20.40;99.90;;;;;;4918988;29;20674;-76
2023/08/14 01:15:52;;;;;;;3.20;1.20;;;20.30;99.90;;;;;;4936462;29;20604;-77
2023/08/14 01:18:20;;;;;;;8.20;1.67;;;20.30;99.90;;;;;;4949395;28;20664;-76
2023/08/14 01:21:04;;;;;;;3.13;1.40;;;20.30;99.90;;;;;;4941027;29;20625;-77
2023/08/14 01:23:48;;;;;;;3.20;0.90;;;20.20;99.90;;;;;;4934948;29;20591;-76
2023/08/14 01:26:15;;;;;;;4.43;1.50;;;20.10;99.90;;;;;;4909998;29;20598;-76
2023/08/14 01:28:41;;;;;;;3.50;2.03;;;20.10;99.90;;;;;;4934417;29;20652;-76
2023/08/14 01:31:07;;;;;;;4.37;1.10;;;20.00;99.90;;;;;;4931968;29;20635;-76
2023/08/14 01:33:32;;;;;;;6.90;1.50;;;19.90;99.90;;;;;;4933881;29;20592;-77
2023/08/14 01:36:05;;;;;;;3.40;1.33;;;19.90;99.90;;;;;;4936494;29;20251;-76
2023/08/14 01:39:04;;;;;;;3.90;1.40;;;19.90;99.90;;;;;;4939184;29;20284;-76
2023/08/14 01:41:42;;;;;;;3.23;1.50;;;19.80;99.90;;;;;;4903381;29;20612;-77
2023/08/14 01:44:11;;;;;;;3.23;1.70;;;19.80;99.90;;;;;;4934821;29;20584;-77
2023/08/14 01:46:38;;;;;;;3.23;1.27;;;19.70;99.90;;;;;;4950939;28;20589;-77
2023/08/14 01:49:04;;;;;;;3.30;1.33;;;19.70;99.90;;;;;;4919032;29;20628;-76
2023/08/14 01:51:32;;;;;;;3.77;1.40;;;19.60;99.90;;;;;;4934568;29;20703;-77
2023/08/14 01:53:57;;;;;;;3.17;1.63;;;19.60;99.90;;;;;;4956910;28;20591;-76
2023/08/14 01:56:23;;;;;;;2.23;1.37;;;19.60;99.90;;;;;;4935107;29;20604;-76
2023/08/14 01:58:49;;;;;;;2.90;1.30;;;19.50;99.90;;;;;;4934484;29;20220;-76
2023/08/14 02:01:14;;;;;;;5.57;1.20;;;19.50;99.90;;;;;;4935722;29;20243;-76
2023/08/14 02:03:40;;;;;;;4.87;1.27;;;19.50;99.90;;;;;;4935718;29;20215;-77
2023/08/14 02:06:06;;;;;;;4.57;1.70;;;19.40;99.90;;;;;;4942149;28;20228;-76
2023/08/14 02:08:32;;;;;;;4.43;1.77;;;19.40;99.90;;;;;;4935402;29;20575;-76
2023/08/14 02:10:57;;;;;;;3.73;1.50;;;19.40;99.90;;;;;;4918811;29;20577;-77
2023/08/14 02:13:23;;;;;;;5.90;1.60;;;19.30;99.90;;;;;;4934269;29;20330;-76
2023/08/14 02:15:49;;;;;;;2.73;1.50;;;19.30;99.90;;;;;;4934454;29;20623;-76
2023/08/14 02:18:14;;;;;;;4.13;1.40;;;19.30;99.90;;;;;;4949236;28;20608;-76
2023/08/14 02:20:50;;;;;;;4.17;1.60;;;19.30;99.90;;;;;;4934095;29;20264;-76
2023/08/14 02:23:15;;;;;;;2.40;1.40;;;19.20;99.90;;;;;;4950078;28;20390;-76
2023/08/14 02:25:42;;;;;;;4.37;1.63;;;19.20;99.90;;;;;;4934242;29;21211;-76
2023/08/14 02:28:08;;;;;;;3.23;1.30;;;19.20;99.90;;;;;;4939471;29;20623;-75
2023/08/14 02:30:43;;;;;;;3.80;1.20;;;19.20;99.90;;;;;;4933964;29;20751;-75
2023/08/14 02:33:10;;;;;;;4.77;1.80;;;19.10;99.90;;;;;;4947001;28;20578;-75
2023/08/14 02:35:36;;;;;;;5.53;1.60;;;19.10;99.90;;;;;;4946168;29;20589;-76
2023/08/14 02:38:03;;;;;;;4.67;1.63;;;19.10;99.90;;;;;;4935057;29;20597;-76
2023/08/14 02:40:29;;;;;;;5.60;2.53;;;19.00;99.90;;;;;;4946614;28;20597;-75
2023/08/14 02:42:59;;;;;;;5.07;1.83;;;19.00;99.90;;;;;;4948093;29;20653;-76
2023/08/14 02:45:25;;;;;;;4.53;1.53;;;19.00;99.90;;;;;;4935368;29;20581;-76
2023/08/14 02:47:50;;;;;;;4.00;1.60;;;19.00;99.90;;;;;;4934429;29;20655;-75
2023/08/14 02:50:16;;;;;;;6.80;2.03;;;19.00;99.90;;;;;;4954479;28;20185;-75
2023/08/14 02:52:42;;;;;;;6.60;1.40;;;19.00;99.90;;;;;;4946699;28;20652;-76
2023/08/14 02:55:08;;;;;;;3.73;1.40;;;19.00;99.90;;;;;;4933693;29;20177;-75
2023/08/14 02:57:34;;;;;;;5.50;2.03;;;18.90;99.90;;;;;;4946295;28;20590;-75
2023/08/14 02:59:59;;;;;;;3.10;1.60;;;18.90;99.90;;;;;;4948523;28;20201;-76
2023/08/14 03:02:25;;;;;;;3.60;1.90;;;18.90;99.90;;;;;;4954941;28;20307;-76
2023/08/14 03:04:51;;;;;;;3.10;1.20;;;18.90;99.90;;;;;;4935634;29;20597;-78
2023/08/14 03:07:17;;;;;;;2.77;1.30;;;18.90;99.90;;;;;;4946575;28;20184;-78
2023/08/14 03:09:42;;;;;;;3.30;1.90;;;18.90;99.90;;;;;;4931622;29;20185;-78
2023/08/14 03:12:08;;;;;;;3.40;1.83;;;18.90;99.90;;;;;;4945832;28;20208;-78
2023/08/14 03:14:34;;;;;;;4.50;1.80;;;18.80;99.90;;;;;;4929017;29;20193;-77
2023/08/14 03:17:00;;;;;;;4.40;1.80;;;18.80;99.90;;;;;;4933257;29;20239;-78
2023/08/14 03:19:26;;;;;;;4.13;1.73;;;18.80;99.90;;;;;;4945945;28;20232;-78
2023/08/14 03:21:52;;;;;;;2.00;1.33;;;18.80;99.90;;;;;;4940631;29;20617;-77
2023/08/14 03:24:19;;;;;;;5.73;1.67;;;18.80;99.90;;;;;;4933360;29;20184;-78
2023/08/14 03:26:45;;;;;;;4.90;1.70;;;18.70;99.90;;;;;;4948977;28;20997;-78
2023/08/14 03:29:11;;;;;;;4.03;1.73;;;18.70;99.90;;;;;;4938978;29;20589;-78
2023/08/14 03:31:37;;;;;;;2.70;1.73;;;18.70;99.90;;;;;;4956759;28;20611;-78
2023/08/14 03:34:03;;;;;;;3.73;1.67;;;18.70;99.90;;;;;;4931794;28;20186;-78
2023/08/14 03:36:31;;;;;;;7.03;1.80;;;18.70;99.90;;;;;;4949131;28;20957;-79
2023/08/14 03:38:58;;;;;;;3.57;1.97;;;18.70;99.90;;;;;;4933048;29;21354;-78
2023/08/14 03:41:25;;;;;;;3.80;1.70;;;18.70;99.90;;;;;;4933339;29;21067;-78
2023/08/14 03:43:53;;;;;;;2.67;1.50;;;18.60;99.90;;;;;;4940180;29;20585;-78
2023/08/14 03:46:19;;;;;;;3.50;1.63;;;18.60;99.90;;;;;;4928225;29;20585;-78
2023/08/14 03:48:44;;;;;;;3.60;1.57;;;18.60;99.90;;;;;;4916871;29;20184;-79
2023/08/14 03:51:10;;;;;;;5.07;1.67;;;18.60;99.90;;;;;;4945760;28;20229;-79
2023/08/14 03:53:36;;;;;;;6.40;1.80;;;18.50;99.90;;;;;;4945569;28;20634;-78
2023/08/14 03:56:02;;;;;;;5.27;2.00;;;18.60;99.90;;;;;;4948720;28;20596;-78
2023/08/14 03:58:28;;;;;;;6.43;2.70;;;18.60;99.90;;;;;;4938731;29;20666;-78
2023/08/14 04:00:55;;;;;;;5.50;1.83;;;18.50;99.90;;;;;;4930701;28;20280;-78
2023/08/14 04:03:21;;;;;;;3.53;1.63;;;18.50;99.90;;;;;;4948597;28;20593;-78
2023/08/14 04:05:47;;;;;;;3.30;1.70;;;18.50;99.90;;;;;;4929040;29;20223;-78
2023/08/14 04:08:14;;;;;;;3.33;1.43;;;18.50;99.90;;;;;;4933957;29;21270;-77
2023/08/14 04:10:40;;;;;;;4.03;2.17;;;18.50;99.90;;;;;;4934039;29;20199;-78
2023/08/14 04:13:06;;;;;;;3.07;1.20;;;18.40;99.90;;;;;;4941744;29;20593;-78
2023/08/14 04:15:32;;;;;;;5.00;2.17;;;18.40;99.90;;;;;;4934222;29;21242;-77
2023/08/14 04:17:58;;;;;;;4.40;1.60;;;18.50;99.90;;;;;;4946956;28;20685;-77
2023/08/14 04:20:23;;;;;;;5.53;1.90;;;18.40;99.90;;;;;;4943806;28;20201;-78
2023/08/14 04:22:49;;;;;;;2.70;1.70;;;18.40;99.90;;;;;;4945530;28;20221;-77
2023/08/14 04:25:18;;;;;;;5.90;1.50;;;18.40;99.90;;;;;;4933012;29;20177;-77
2023/08/14 04:27:45;;;;;;;3.07;1.83;;;18.40;99.90;;;;;;4954956;28;20588;-78
2023/08/14 04:30:11;;;;;;;3.17;1.70;;;18.40;99.90;;;;;;4932872;29;20929;-77
2023/08/14 04:32:37;;;;;;;3.73;1.30;;;18.40;99.90;;;;;;4942527;29;20666;-77
2023/08/14 04:35:03;;;;;;;2.90;1.70;;;18.40;99.90;;;;;;4951672;29;21187;-77
2023/08/14 04:37:29;;;;;;;7.20;2.13;;;18.40;99.90;;;;;;4968418;28;20237;-77
2023/08/14 04:39:55;;;;;;;4.70;2.10;;;18.40;99.90;;;;;;4955609;29;20648;-77
2023/08/14 04:42:20;;;;;;;3.43;1.90;;;18.40;99.90;;;;;;4970005;28;20628;-77
2023/08/14 04:44:46;;;;;;;3.20;1.70;;;18.40;99.90;;;;;;4975006;28;20173;-77
2023/08/14 04:47:12;;;;;;;5.53;3.00;;;18.40;99.90;;;;;;4970340;28;20543;-77
2023/08/14 04:49:38;;;;;;;3.30;1.87;;;18.40;99.90;;;;;;4960301;29;20631;-77
2023/08/14 04:52:03;;;;;;;3.40;1.90;;;18.40;99.90;;;;;;4971491;28;20232;-78
2023/08/14 04:54:31;;;;;;;3.60;1.40;;;18.40;99.90;;;;;;4960003;29;20186;-78
2023/08/14 04:56:58;;;;;;;6.43;2.37;;;18.50;99.90;;;;;;4951662;28;20596;-77
2023/08/14 04:59:24;;;;;;;3.33;1.40;;;18.40;99.90;;;;;;4957091;29;20644;-78
2023/08/14 05:01:51;;;;;;;4.67;2.10;;;18.40;99.90;;;;;;4957367;29;20628;-78
2023/08/14 05:04:19;;;;;;;3.43;2.17;;;18.40;99.90;;;;;;4952263;29;20581;-78
2023/08/14 05:06:45;;;;;;;2.83;1.70;;;18.50;99.90;;;;;;4948488;29;20589;-78
2023/08/14 05:09:11;;;;;;;3.70;1.60;;;18.50;99.90;;;;;;4953077;29;20587;-78
2023/08/14 05:11:36;;;;;;;6.13;2.67;;;18.60;99.90;;;;;;4953217;29;20197;-79
2023/08/14 05:14:02;;;;;;;3.70;2.10;;;18.60;99.90;;;;;;4968917;28;20185;-78
2023/08/14 05:16:28;;;;;;;8.87;2.60;;;18.60;99.90;;;;;;4947306;29;20193;-78
2023/08/14 05:18:55;;;;;;;3.00;2.20;;;18.70;99.90;;;;;;4968019;28;20208;-78
2023/08/14 05:21:21;;;;;;;3.10;1.53;;;18.70;99.90;;;;;;4958565;29;20644;-78
2023/08/14 05:23:47;;;;;;;4.27;2.00;;;18.70;99.90;;;;;;4967528;29;20168;-79
2023/08/14 05:26:13;;;;;;;2.53;1.90;;;18.80;99.90;;;;;;4954573;29;20193;-78
2023/08/14 05:28:38;;;;;;;3.53;2.17;;;18.80;99.90;;;;;;4962668;28;20189;-79
2023/08/14 05:31:07;;;;;;;5.03;1.83;;;18.90;99.90;;;;;;4932348;29;20580;-78
2023/08/14 05:33:33;;;;;;;3.80;1.70;;;18.90;99.90;;;;;;4961153;28;20272;-78
2023/08/14 05:35:59;;;;;;;3.47;1.80;;;19.00;99.90;;;;;;4968312;28;20619;-78
2023/08/14 05:38:24;;;;;;;4.40;1.40;;;19.00;99.90;;;;;;4961042;28;20245;-77
2023/08/14 05:40:50;;;;;;;4.33;1.90;;;19.10;99.90;;;;;;4955028;29;20208;-78
2023/08/14 05:43:16;;;;;;;5.37;1.97;;;19.20;99.90;;;;;;4957136;28;20191;-78
2023/08/14 05:45:43;;;;;;;4.17;1.90;;;19.30;99.90;;;;;;4952824;29;20168;-78
2023/08/14 05:48:10;;;;;;;4.70;2.23;;;19.40;99.90;;;;;;4940735;28;20193;-78
2023/08/14 05:50:36;;;;;;;3.30;2.30;;;19.60;99.90;;;;;;4945009;29;20668;-79
2023/08/14 05:53:04;;;;;;;3.93;2.10;;;19.60;99.90;;;;;;4943670;28;20620;-79
2023/08/14 05:55:31;;;;;;;6.03;2.40;;;19.70;99.90;;;;;;4931763;29;20629;-79
2023/08/14 05:57:57;;;;;;;4.30;2.30;;;19.80;99.90;;;;;;4933356;29;20592;-79
2023/08/14 06:00:24;;;;;;;4.23;2.17;;;20.00;99.90;;;;;;4934913;29;20632;-80
2023/08/14 06:02:51;;;;;;;3.80;2.17;;;20.10;99.90;;;;;;4947448;28;20629;-80
2023/08/14 06:05:18;;;;;;;3.40;2.00;;;20.30;99.90;;;;;;4943107;29;20988;-79
2023/08/14 06:07:46;;;;;;;3.80;1.97;;;20.40;99.90;;;;;;4935935;29;20580;-78
2023/08/14 06:10:12;;;;;;;2.83;1.70;;;20.60;99.90;;;;;;4935874;29;20674;-79
2023/08/14 06:12:38;;;;;;;4.57;3.03;;;20.80;99.90;;;;;;4940773;28;20641;-79
2023/08/14 06:15:05;;;;;;;2.73;1.57;;;21.00;99.90;;;;;;4933810;29;20196;-79
2023/08/14 06:17:32;;;;;;;4.17;2.13;;;21.20;99.90;;;;;;4947403;28;20592;-79
2023/08/14 06:19:58;;;;;;;4.70;1.50;;;21.30;99.90;;;;;;4932600;29;21012;-79
2023/08/14 06:26:21;;;;;;;4.30;2.00;;;21.60;99.90;;;;;;4944163;28;20997;-78
2023/08/14 06:28:47;;;;;;;4.20;1.67;;;21.80;99.90;;;;;;4960153;28;20595;-78
2023/08/14 06:31:13;;;;;;;3.40;1.50;;;22.00;99.90;;;;;;4942599;29;20624;-78
2023/08/14 06:33:38;;;;;;;2.77;1.70;;;22.20;99.90;;;;;;4935765;29;20185;-78
2023/08/14 06:36:05;;;;;;;4.57;2.03;;;22.30;99.90;;;;;;4948112;28;21151;-78
2023/08/14 06:38:30;;;;;;;4.80;1.80;;;22.50;99.90;;;;;;4933702;29;20253;-77
2023/08/14 06:40:56;;;;;;;5.13;2.40;;;22.80;99.90;;;;;;4949896;28;20733;-75
2023/08/14 06:43:22;;;;;;;7.40;1.63;;;23.20;99.90;;;;;;4949794;28;20177;-77
2023/08/14 06:45:47;;;;;;;4.30;2.07;;;23.60;99.90;;;;;;4941877;29;20172;-76
2023/08/14 06:48:14;;;;;;;3.53;1.27;;;24.20;99.90;;;;;;4936077;29;20177;-76
2023/08/14 06:50:40;;;;;;;6.10;2.47;;;24.90;99.90;;;;;;4942514;29;20176;-76
2023/08/14 06:53:05;;;;;;;3.80;1.37;;;25.60;99.90;;;;;;4949589;28;21093;-77
2023/08/14 06:55:31;;;;;;;3.67;1.60;;;26.20;99.90;;;;;;4947081;28;20178;-77
2023/08/14 06:57:57;;;;;;;4.20;1.70;;;26.70;99.90;;;;;;4931952;29;20272;-77
2023/08/14 07:00:22;;;;;;;2.90;1.87;;;27.10;99.90;;;;;;4934959;29;20267;-77
2023/08/14 07:02:48;;;;;;;3.60;1.50;;;27.30;99.90;;;;;;4948835;28;20206;-78
2023/08/14 07:09:02;;;;;;;3.97;1.57;;;27.80;99.90;;;;;;4951105;28;20255;-77
2023/08/14 07:11:38;;;;;;;2.80;1.23;;;28.70;99.90;;;;;;4945019;28;21046;-77
2023/08/14 07:14:04;;;;;;;3.13;1.00;;;29.00;99.90;;;;;;4946616;28;20728;-78
2023/08/14 07:24:05;;;;;;;6.20;1.50;;;29.60;99.90;;;;;;4934429;29;20604;-77
2023/08/14 07:30:49;;;;;;;2.60;1.23;;;29.40;99.90;;;;;;4949104;28;20260;-77
2023/08/14 07:37:02;;;;;;;4.13;1.00;;;29.30;99.90;;;;;;4930493;29;21177;-77
2023/08/14 07:39:27;;;;;;;5.70;1.40;;;29.80;99.90;;;;;;4922328;29;20648;-77
2023/08/14 07:45:41;;;;;;;3.60;1.13;;;30.30;99.90;;;;;;4945623;28;20282;-78
2023/08/14 07:48:06;;;;;;;3.50;1.00;;;31.00;99.90;;;;;;4936208;28;20626;-77
2023/08/14 07:50:32;;;;;;;2.77;1.00;;;31.30;99.90;;;;;;4934301;29;21248;-78
2023/08/14 07:52:58;;;;;;;2.33;0.87;;;31.50;99.90;;;;;;4933938;29;20194;-77
2023/08/14 07:55:23;;;;;;;2.57;1.47;;;31.60;99.90;;;;;;4940694;28;20190;-77
2023/08/14 08:05:23;;;;;;;3.43;1.00;;;31.90;95.70;;;;;;4948592;28;20634;-77
2023/08/14 08:07:49;;;;;;;2.57;1.30;;;31.60;98.80;;;;;;4934149;29;21169;-78
2023/08/14 08:10:15;;;;;;;2.77;1.07;;;31.70;98.40;;;;;;4934920;29;20188;-78
2023/08/14 08:12:41;;;;;;;3.97;1.30;;;32.00;99.30;;;;;;4945982;28;20205;-78
2023/08/14 08:15:06;;;;;;;2.97;0.90;;;32.60;99.10;;;;;;4937159;29;20181;-78
2023/08/14 08:17:32;;;;;;;2.10;0.90;;;33.30;98.60;;;;;;4963856;28;20172;-78
2023/08/14 08:19:58;;;;;;;2.20;1.00;;;34.00;98.20;;;;;;4960588;28;20254;-78
2023/08/14 08:22:24;;;;;;;4.47;1.00;;;34.80;96.90;;;;;;4929466;29;20208;-77
2023/08/14 08:24:49;;;;;;;3.30;0.97;;;35.50;95.10;;;;;;4920643;29;20181;-78
2023/08/14 08:27:15;;;;;;;3.00;1.00;;;36.00;93.80;;;;;;4951039;28;20188;-78
2023/08/14 08:29:41;;;;;;;2.97;0.93;;;36.30;91.70;;;;;;4968084;28;20970;-78
2023/08/14 08:32:08;;;;;;;3.33;1.20;;;36.80;89.70;;;;;;4953062;28;20618;-77
2023/08/14 08:34:34;;;;;;;4.73;2.70;;;37.20;88.10;;;;;;4939667;29;20285;-77
2023/08/14 08:36:59;;;;;;;4.50;1.17;;;37.70;82.30;;;;;;4964142;28;20591;-78
2023/08/14 08:39:25;;;;;;;2.60;0.80;;;37.70;76.90;;;;;;4953513;28;21251;-78
2023/08/14 08:41:52;;;;;;;2.17;1.10;;;37.90;73.70;;;;;;4954979;28;20751;-78
2023/08/14 08:44:30;;;;;;;2.50;0.90;;;37.90;72.00;;;;;;4944917;28;20207;-77
2023/08/14 08:47:07;;;;;;;3.30;1.30;;;38.10;69.20;;;;;;4945747;29;20608;-77
2023/08/14 08:49:34;;;;;;;2.37;0.80;;;38.30;68.50;;;;;;4927098;29;20596;-77
2023/08/14 08:52:04;;;;;;;2.40;0.93;;;38.30;67.00;;;;;;4933492;29;20612;-77
2023/08/14 08:54:31;;;;;;;3.33;1.30;;;38.20;64.90;;;;;;4934272;29;20600;-78
2023/08/14 08:56:58;;;;;;;2.60;1.10;;;38.20;64.50;;;;;;4932716;29;20603;-77
2023/08/14 08:59:25;;;;;;;3.53;1.00;;;38.10;61.80;;;;;;4933875;29;20667;-77
2023/08/14 09:01:51;;;;;;;2.70;1.20;;;38.00;60.40;;;;;;4955651;28;20640;-78
2023/08/14 09:04:17;;;;;;;1.93;0.80;;;38.10;62.30;;;;;;4946769;28;20848;-77
2023/08/14 09:06:44;;;;;;;3.70;0.80;;;38.20;59.40;;;;;;4933142;29;20588;-77
2023/08/14 09:09:12;;;;;;;3.10;1.10;;;37.80;58.90;;;;;;4933083;29;20607;-76
2023/08/14 09:11:38;;;;;;;3.93;0.80;;;37.90;58.30;;;;;;4931833;29;20712;-77
2023/08/14 09:14:05;;;;;;;2.50;1.00;;;38.00;59.10;;;;;;4944803;28;21223;-78
2023/08/14 09:16:30;;;;;;;2.83;1.10;;;38.40;59.50;;;;;;4933238;29;20177;-78
2023/08/14 09:19:00;;;;;;;2.60;0.90;;;38.90;59.00;;;;;;4940165;29;21244;-78
2023/08/14 09:21:27;;;;;;;1.73;0.90;;;39.30;59.20;;;;;;4946093;28;20964;-78
2023/08/14 09:23:54;;;;;;;5.53;0.83;;;39.70;58.30;;;;;;4916322;29;20612;-78
2023/08/14 09:26:21;;;;;;;1.93;0.80;;;40.10;57.60;;;;;;4941550;29;20591;-78
2023/08/14 09:28:47;;;;;;;1.57;0.90;;;40.10;56.20;;;;;;4952448;28;20608;-78
2023/08/14 09:31:13;;;;;;;1.60;0.70;;;40.10;54.60;;;;;;4949371;28;20643;-78
2023/08/14 09:33:42;;;;;;;3.40;1.10;;;40.10;54.40;;;;;;4944550;29;20588;-78
2023/08/14 09:36:08;;;;;;;2.80;1.10;;;39.90;53.80;;;;;;4948802;28;20605;-78
2023/08/14 09:38:34;;;;;;;5.00;1.03;;;39.30;52.20;;;;;;4940398;29;20639;-78
2023/08/14 09:41:01;;;;;;;4.03;1.10;;;38.60;51.90;;;;;;4940182;28;20620;-77
2023/08/14 09:43:29;;;;;;;2.43;0.80;;;37.90;51.80;;;;;;4936203;29;20185;-78
2023/08/14 09:45:57;;;;;;;5.90;1.20;;;37.10;51.50;;;;;;4947926;28;20609;-79
2023/08/14 09:48:38;;;;;;;3.20;1.03;;;36.30;52.00;;;;;;4950097;28;21101;-79
2023/08/14 09:51:04;;;;;;;2.43;0.90;;;35.80;52.80;;;;;;4948322;28;20640;-78
2023/08/14 09:53:29;;;;;;;2.00;0.87;;;35.40;53.20;;;;;;4936867;29;20965;-78
2023/08/14 09:55:57;;;;;;;2.40;1.00;;;34.90;53.40;;;;;;4963421;28;20245;-79
2023/08/14 09:58:23;;;;;;;2.80;0.90;;;34.40;53.60;;;;;;4970123;28;20231;-77
2023/08/14 10:00:49;;;;;;;3.50;1.30;;;34.00;54.30;;;;;;4970700;28;20697;-77
2023/08/14 10:03:16;;;;;;;2.73;1.00;;;33.60;54.30;;;;;;4949810;29;20195;-77
2023/08/14 10:05:42;;;;;;;2.77;0.90;;;33.20;55.00;;;;;;4957199;29;20600;-77
2023/08/14 10:08:09;;;;;;;3.10;1.13;;;33.20;56.50;;;;;;4949100;28;21135;-78
2023/08/14 10:10:38;;;;;;;3.23;1.10;;;33.40;57.20;;;;;;4944724;29;20593;-77
2023/08/14 10:13:08;;;;;;;5.20;1.17;;;33.50;57.40;;;;;;4947480;28;20597;-77
2023/08/14 10:15:41;;;;;;;2.10;0.80;;;33.70;56.80;;;;;;4927286;29;20599;-77
2023/08/14 10:18:13;;;;;;;6.13;1.57;;;33.90;57.00;;;;;;4947492;28;20601;-77
2023/08/14 10:20:42;;;;;;;3.33;1.17;;;34.10;56.40;;;;;;4953527;28;20642;-78
2023/08/14 10:23:09;;;;;;;3.47;1.13;;;34.30;56.40;;;;;;4937424;29;20691;-77
2023/08/14 10:25:36;;;;;;;2.40;1.03;;;34.30;55.70;;;;;;4943108;28;20597;-77
2023/08/14 10:28:02;;;;;;;3.33;1.17;;;34.20;55.60;;;;;;4948080;28;20665;-78
2023/08/14 10:30:29;;;;;;;4.73;1.20;;;34.20;56.10;;;;;;4934905;29;20601;-77
2023/08/14 10:32:56;;;;;;;5.13;1.10;;;34.50;56.60;;;;;;4924035;29;20604;-77
2023/08/14 10:35:23;;;;;;;3.07;1.10;;;34.60;56.30;;;;;;4945234;29;20607;-78
2023/08/14 10:37:49;;;;;;;4.27;1.50;;;34.50;56.10;;;;;;4934088;29;20601;-77
2023/08/14 10:40:20;;;;;;;4.10;1.40;;;34.50;55.80;;;;;;4964832;28;20750;-78
2023/08/14 10:42:46;;;;;;;2.90;1.13;;;34.20;55.70;;;;;;4942606;29;20642;-78
2023/08/14 10:45:16;;;;;;;5.50;1.43;;;34.00;56.10;;;;;;4934786;29;21186;-78
2023/08/14 10:47:42;;;;;;;3.80;1.03;;;34.00;56.90;;;;;;4927670;29;20651;-78
2023/08/14 10:50:19;;;;;;;2.43;1.10;;;34.30;58.10;;;;;;4935347;29;21004;-78
2023/08/14 10:52:53;;;;;;;3.77;0.83;;;34.70;58.60;;;;;;4941969;29;20651;-78
2023/08/14 10:55:42;;;;;;;3.03;1.13;;;35.40;59.70;;;;;;4941560;29;20620;-78
2023/08/14 10:58:33;;;;;;;2.53;1.10;;;35.90;59.00;;;;;;4946715;28;20593;-78
2023/08/14 11:01:19;;;;;;;2.70;1.10;;;36.50;57.40;;;;;;4946644;28;20747;-78
2023/08/14 11:03:58;;;;;;;3.20;1.03;;;36.80;58.00;;;;;;4933615;29;20691;-78
2023/08/14 11:06:45;;;;;;;3.90;1.73;;;37.30;57.10;;;;;;4960709;28;20586;-78
2023/08/14 11:09:11;;;;;;;2.20;0.90;;;37.60;55.90;;;;;;4940156;29;20619;-77
2023/08/14 11:11:44;;;;;;;2.83;1.00;;;37.80;55.70;;;;;;4938051;29;20688;-78
2023/08/14 11:14:10;;;;;;;2.87;1.00;;;37.70;53.90;;;;;;4954278;28;20628;-77
2023/08/14 11:16:35;;;;;;;2.00;1.00;;;37.60;53.80;;;;;;4952298;28;20605;-78
2023/08/14 11:19:01;;;;;;;3.23;1.40;;;37.50;53.40;;;;;;4937232;29;20636;-77
2023/08/14 11:21:27;;;;;;;3.20;1.10;;;37.20;52.80;;;;;;4940255;29;20618;-78
2023/08/14 11:23:53;;;;;;;4.50;1.40;;;36.90;53.00;;;;;;4933771;29;20597;-77
2023/08/14 11:26:19;;;;;;;2.73;1.00;;;36.60;53.10;;;;;;4949082;28;20173;-78
2023/08/14 11:28:44;;;;;;;3.43;1.10;;;36.40;53.20;;;;;;4936122;29;20185;-78
2023/08/14 11:31:12;;;;;;;2.63;1.00;;;36.10;53.10;;;;;;4946044;28;20217;-77
2023/08/14 11:33:40;;;;;;;3.20;0.90;;;35.80;52.80;;;;;;4932962;29;20188;-78
2023/08/14 11:36:07;;;;;;;3.07;1.50;;;35.30;53.00;;;;;;4933228;29;20692;-78
2023/08/14 11:38:33;;;;;;;3.90;1.70;;;34.90;53.20;;;;;;4948233;28;20597;-78
2023/08/14 11:40:59;;;;;;;2.73;1.27;;;34.50;53.40;;;;;;4945724;28;21210;-78
2023/08/14 11:43:25;;;;;;;6.40;1.33;;;34.10;53.70;;;;;;4954671;28;20192;-76
2023/08/14 11:45:52;;;;;;;3.30;1.30;;;33.70;54.00;;;;;;4965492;28;20581;-78
2023/08/14 11:48:19;;;;;;;4.10;1.37;;;33.30;54.40;;;;;;4941178;29;20189;-77
2023/08/14 11:50:47;;;;;;;2.13;1.10;;;32.90;55.00;;;;;;4940537;29;20693;-78
2023/08/14 11:53:13;;;;;;;3.30;1.20;;;32.50;56.20;;;;;;4939069;29;21646;-77
2023/08/14 11:55:39;;;;;;;2.73;1.10;;;32.20;57.00;;;;;;4960500;28;20592;-78
2023/08/14 11:58:05;;;;;;;6.20;1.43;;;32.20;58.30;;;;;;4946967;28;20667;-78
2023/08/14 12:00:31;;;;;;;4.53;2.23;;;32.30;58.90;;;;;;4957346;28;20632;-79
2023/08/14 12:02:56;;;;;;;3.03;1.43;;;32.10;58.80;;;;;;4933654;29;20189;-78
2023/08/14 12:05:22;;;;;;;6.93;1.73;;;32.10;58.90;;;;;;4941465;29;20192;-78
2023/08/14 12:07:48;;;;;;;5.50;1.60;;;32.00;59.30;;;;;;4945035;28;20171;-78
2023/08/14 12:10:17;;;;;;;5.23;1.50;;;31.70;59.40;;;;;;4921185;29;20739;-78
2023/08/14 12:12:43;;;;;;;3.37;1.20;;;31.30;61.20;;;;;;4943005;28;20312;-78
2023/08/14 12:18:56;;;;;;;5.83;1.10;;;31.20;62.60;;;;;;4927190;29;20212;-79
2023/08/14 12:21:27;;;;;;;3.37;1.47;;;31.30;64.00;;;;;;4951919;28;20640;-77
2023/08/14 12:23:54;;;;;;;4.47;1.67;;;31.20;64.90;;;;;;4944039;28;21161;-78
2023/08/14 12:26:20;;;;;;;3.47;1.37;;;31.20;65.10;;;;;;4945126;28;20609;-77
2023/08/14 12:32:23;;;;;;;3.20;1.50;;;31.30;65.10;;;;;;5583331;23;21096;-77
2023/08/14 12:34:50;;;;;;;4.03;1.67;;;31.20;65.70;;;;;;4896281;28;1095778;-78
2023/08/14 12:37:16;;;;;;;4.43;2.30;;;31.10;64.60;;;;;;4929794;29;20182;-76
2023/08/14 12:39:44;;;;;;;4.00;1.20;;;30.90;65.60;;;;;;4914548;29;20644;-76
2023/08/14 12:42:11;;;;;;;5.07;1.33;;;30.80;66.00;;;;;;4928290;29;20624;-77
2023/08/14 12:44:37;;;;;;;2.10;1.10;;;30.50;67.00;;;;;;4935871;29;20593;-77
2023/08/14 12:47:03;;;;;;;3.60;1.23;;;30.30;67.70;;;;;;4935148;29;21196;-77
2023/08/14 12:49:28;;;;;;;3.63;1.47;;;30.20;67.80;;;;;;4941489;29;20189;-77
2023/08/14 12:51:54;;;;;;;4.20;1.53;;;30.10;69.80;;;;;;4940814;28;20204;-77
2023/08/14 12:54:21;;;;;;;4.33;1.37;;;30.10;70.90;;;;;;4933664;29;20541;-77
2023/08/14 12:56:47;;;;;;;3.83;1.50;;;30.10;72.70;;;;;;4935934;29;20189;-78
2023/08/14 12:59:13;;;;;;;3.60;1.10;;;29.80;73.50;;;;;;4941828;29;21126;-77
2023/08/14 13:01:39;;;;;;;3.97;1.30;;;29.80;74.00;;;;;;4938119;29;21141;-77
2023/08/14 13:04:05;;;;;;;2.60;1.10;;;29.70;74.00;;;;;;4935687;29;20681;-78
2023/08/14 13:06:31;;;;;;;2.73;1.17;;;29.70;74.70;;;;;;4919954;29;20260;-79
2023/08/14 13:08:58;;;;;;;2.70;1.20;;;29.60;75.90;;;;;;4936973;29;20591;-78
2023/08/14 13:11:24;;;;;;;5.17;2.20;;;29.40;76.70;;;;;;4936457;29;20620;-77
2023/08/14 13:13:51;;;;;;;3.60;1.93;;;29.30;76.40;;;;;;4939687;29;20595;-77
2023/08/14 13:16:16;;;;;;;3.03;1.30;;;29.10;76.50;;;;;;4948570;29;20599;-77
2023/08/14 13:18:43;;;;;;;4.00;1.33;;;29.00;77.10;;;;;;4936543;29;20630;-78
2023/08/14 13:21:09;;;;;;;2.37;1.10;;;28.90;77.50;;;;;;4935446;29;20205;-78
2023/08/14 13:23:34;;;;;;;9.23;2.03;;;28.90;77.30;;;;;;4935488;29;20644;-78
2023/08/14 13:26:00;;;;;;;2.47;1.40;;;28.90;78.60;;;;;;4916416;29;20189;-78
2023/08/14 13:28:27;;;;;;;5.47;1.60;;;28.90;78.80;;;;;;4946465;29;20725;-79
2023/08/14 13:30:53;;;;;;;2.87;1.50;;;28.80;80.40;;;;;;4919425;29;20644;-77